ADDS METAR Data INFO
IDs: Format: Raw Decoded Include TAF

Data at: 2251 UTC 22 Jun 2018

KBUY 222154Z AUTO 18006KT 10SM FEW055 FEW070 SCT090 32/21 A2973 RMK AO2 SLP060 T03170206
KBUY 222054Z AUTO 19009KT 10SM FEW065 33/20 A2975 RMK AO2 SLP065 T03330200 56020
KBUY 221954Z AUTO 17007KT 10SM FEW055 FEW075 33/21 A2976 RMK AO2 SLP070 T03280211
KBUY 221854Z AUTO 19008KT 160V220 10SM FEW049 33/19 A2979 RMK AO2 SLP078 T03280194
KBUY 221754Z AUTO 14004KT 10SM BKN036 BKN055 OVC070 31/22 A2981 RMK AO2 SLP086 T03060222 10311 20244 58010
KBUY 221654Z AUTO 00000KT 10SM CLR 30/22 A2982 RMK AO2 SLP090 T03000217
KBUY 221554Z AUTO 00000KT 10SM CLR 28/22 A2984 RMK AO2 SLP096 T02830222
KBUY 221454Z AUTO 26004KT 10SM FEW013 27/22 A2984 RMK AO2 SLP096 T02720222 50003
KBUY 221446Z AUTO VRB03KT 10SM FEW013 27/23 A2984 RMK AO2 T02670228
KBUY 221402Z AUTO 22005KT 10SM BKN010 26/23 A2984 RMK AO2 T02610228
KBUY 221354Z AUTO 25006KT 10SM SCT010 27/23 A2984 RMK AO2 SLP097 T02670228
KBUY 221324Z AUTO 20003KT 10SM SCT008 26/22 A2983 RMK AO2 T02610222
KBUY 221254Z AUTO 00000KT 10SM BKN007 25/22 A2984 RMK AO2 SLP095 T02500222
KBUY 221247Z AUTO 23004KT 10SM BKN007 26/22 A2984 RMK AO2 T02560222
KBUY 221222Z AUTO 00000KT 10SM 24/22 A2983 RMK AO2 SLP093 6//// 7//// T02440222 10244 20206
KBUY 221119Z AUTO 00000KT 10SM SCT015 BKN060 23/22 A2982 RMK AO2 T02330222
KBUY 221054Z AUTO 00000KT 10SM OVC015 23/22 A2982 RMK AO2 SLP089 T02280217
KBUY 221027Z AUTO 00000KT 10SM OVC015 22/21 A2982 RMK AO2 T02220211
KBUY 220954Z AUTO 00000KT 10SM BKN014 22/21 A2981 RMK AO2 SLP085 T02170211
KBUY 220935Z AUTO 00000KT 10SM BKN014 BKN065 22/21 A2980 RMK AO2 T02170206
KBUY 220854Z AUTO 00000KT 10SM FEW001 21/21 A2979 RMK AO2 SLP078 T02110206 53001
KBUY 220845Z AUTO 03003KT 10SM FEW001 21/21 A2978 RMK AO2 T02110206
KBUY 220754Z AUTO 00000KT 10SM CLR 22/21 A2978 RMK AO2 SLP077 T02170211
KBUY 220654Z AUTO 00000KT 10SM CLR 22/22 A2977 RMK AO2 SLP073 T02220217
KBUY 220554Z AUTO 17003KT 10SM CLR 23/22 A2978 RMK AO2 SLP077 60014 T02280217 10300 20228 58013
KBUY 220454Z AUTO 00000KT 10SM CLR 23/21 A2980 RMK AO2 RAE36 SLP084 P0004 T02280211 403220217
KBUY 220408Z AUTO 32006KT 10SM -RA BKN095 BKN120 23/22 A2983 RMK AO2 LTG DSNT N AND NE P0002 T02330217
KBUY 220354Z AUTO 32008G16KT 10SM VCTS -RA FEW065 BKN095 23/22 A2983 RMK AO2 LTG DSNT NE RAE10B19 TSB0256E11B34E49 SLP094 P0003 T02330217
KBUY 220340Z AUTO 31008KT 10SM -TSRA FEW044 SCT050 BKN065 24/23 A2984 RMK AO2 LTG DSNT W-NE RAE10B19 TSB0256E11B34 P0001 T02390228
KBUY 220331Z AUTO 31006KT 10SM VCTS SCT046 OVC060 24/23 A2983 RMK AO2 LTG DSNT W-NE RAE10B19E31 TSB0256E11 P0001 T02390228
KBUY 220314Z AUTO 30006KT 10SM SCT044 OVC055 24/22 A2982 RMK AO2 LTG DSNT W-NE RAE10 TSB0256E11 P0001 T02440222
KBUY 220302Z AUTO 28006KT 10SM -TSRA BKN055 BKN070 OVC090 25/22 A2981 RMK AO2 LTG DSNT W-NE TSB0256 P0001 T02500222
KBUY 220254Z AUTO 29012KT 10SM -RA SCT055 BKN070 OVC090 25/23 A2982 RMK AO2 LTG DSNT W-N RAB22E37B53 TSB26E43 PRESRR SLP090 P0004 60007 T02500233 53015
KBUY 220249Z AUTO 26003KT 10SM SCT055 BKN070 OVC090 25/23 A2980 RMK AO2 LTG DSNT W-N RAB22E37 TSB26E43 P0000
KBUY 220232Z AUTO 00000KT 10SM -TSRA SCT055 BKN065 OVC110 25/23 A2979 RMK AO2 LTG DSNT N AND NW RAB22 TSB26 P0000 T02500233
KBUY 220154Z AUTO 00000KT 10SM SCT080 BKN100 25/22 A2978 RMK AO2 LTG DSNT NW RAB22E50 SLP078 P0003 T02500222
KBUY 220054Z AUTO 00000KT 10SM FEW080 29/22 A2978 RMK AO2 SLP075 T02890222
KBUY 212354Z AUTO 21003KT 10SM CLR 30/21 A2976 RMK AO2 SLP071 T03000211 10322 20300 55001
KBUY 212254Z AUTO 22004KT 10SM CLR 31/21 A2975 RMK AO2 SLP066 T03110206
KBUY 212154Z AUTO 21004KT 10SM CLR 32/21 A2975 RMK AO2 SLP066 T03170211
KBUY 212054Z AUTO 23007KT 10SM CLR 32/21 A2977 RMK AO2 SLP072 T03170206 56015
KBUY 211954Z AUTO 23006KT 10SM CLR 32/21 A2977 RMK AO2 SLP074 T03170211
KBUY 211854Z AUTO 25005KT 10SM OVC080 31/21 A2980 RMK AO2 SLP082 T03110211
KBUY 211754Z AUTO 23003KT 10SM FEW075 OVC095 31/21 A2981 RMK AO2 SLP087 T03110206 10322 20250 58010
KBUY 211654Z AUTO 25007KT 10SM BKN110 32/21 A2983 RMK AO2 SLP092 T03220211
KBUY 211554Z AUTO VRB05KT 10SM CLR 31/21 A2984 RMK AO2 SLP096 T03110211
KBUY 211454Z AUTO 23005KT 10SM CLR 30/21 A2984 RMK AO2 SLP097 T03000211 51003
KBUY 211354Z AUTO 30003KT 10SM CLR 28/22 A2984 RMK AO2 SLP096 T02830222
KBUY 211254Z AUTO 26005KT 10SM CLR 27/22 A2984 RMK AO2 SLP097 T02720217
KBUY 211154Z AUTO 24004KT 10SM CLR 25/22 A2983 RMK AO2 SLP094 70013 T02500217 10250 20217 53010
KBUY 211054Z AUTO 25003KT 10SM CLR 23/22 A2982 RMK AO2 SLP088 T02280217